Kawasaki, Japan
Current Conditions -  °F | °C
As of 9:30 AM on Tuesday 23 Dec 2014 (Local Time) from RJTT Reporting Station
Few Clouds Few Clouds  
Wind Chill: 40°   Ceiling: Unl
Heat Index: 46°   Visibility: 6mi
Dew Point: 25°   Wind: 16mph
Humidity: 43%   Direction: 330°NNW
Pressure: 30.09"   Gusts: NA
Location:  35.53°N, 139.7°E
Report Text: RJTT 230030Z 33014KT 9999 FEW030 08/M04 Q1019 NOSIG
Loading
Personal Weather Stations






























Interactive Weather Map New forecast layout! Learn more

10-Day Weather Forecast

Advertisements
Track Severe Weather on mobile